Time;durP1;ratioP1;P1;durP2;ratioP2;P2;SDS_P1;SDS_P2;PMS_P1;PMS_P2;Temp;Humidity;BMP_temperature;BMP_pressure;BME280_temperature;BME280_humidity;BME280_pressure;Samples;Min_cycle;Max_cycle;Signal;HPM_P1;HPM_P2
2022/11/03 00:01:42;;;;;;;3.95;1.40;;;17.80;64.50;;;;;;5052242;28;20179;-68
2022/11/03 00:04:09;;;;;;;2.75;1.40;;;17.80;64.50;;;;;;5052576;28;20191;-68
2022/11/03 00:06:35;;;;;;;2.72;1.45;;;17.90;64.50;;;;;;5052513;28;20182;-69
2022/11/03 00:09:03;;;;;;;4.75;1.60;;;17.90;64.50;;;;;;5051824;28;20198;-69
2022/11/03 00:11:31;;;;;;;4.35;1.42;;;17.80;64.50;;;;;;5052720;28;20179;-69
2022/11/03 00:13:57;;;;;;;4.80;1.90;;;17.80;64.50;;;;;;5052355;28;20222;-70
2022/11/03 00:16:22;;;;;;;3.90;1.45;;;17.80;64.60;;;;;;5051954;28;20278;-69
2022/11/03 00:18:48;;;;;;;2.00;1.65;;;17.80;64.50;;;;;;5052950;28;20167;-69
2022/11/03 00:21:13;;;;;;;2.95;1.40;;;17.80;64.60;;;;;;5052562;28;20257;-69
2022/11/03 00:23:40;;;;;;;3.42;1.25;;;17.80;64.60;;;;;;5052010;28;20642;-70
2022/11/03 00:26:11;;;;;;;2.85;1.60;;;17.80;64.50;;;;;;5052487;28;20179;-70
2022/11/03 00:28:36;;;;;;;5.40;2.15;;;17.80;64.60;;;;;;5050655;28;20269;-69
2022/11/03 00:31:06;;;;;;;3.50;1.48;;;17.80;64.60;;;;;;5052286;28;20649;-69
2022/11/03 00:33:31;;;;;;;3.53;1.52;;;17.80;64.60;;;;;;5052817;28;20258;-69
2022/11/03 00:35:58;;;;;;;3.78;1.70;;;17.70;64.50;;;;;;5051668;28;20258;-68
2022/11/03 00:38:24;;;;;;;3.13;1.40;;;17.80;64.60;;;;;;5052688;28;20194;-69
2022/11/03 00:40:53;;;;;;;4.75;1.90;;;17.80;64.60;;;;;;5052586;28;20175;-69
2022/11/03 00:43:20;;;;;;;2.75;1.33;;;17.80;64.60;;;;;;5051574;28;20306;-69
2022/11/03 00:45:45;;;;;;;3.63;2.05;;;17.80;64.60;;;;;;5052398;28;20633;-69
2022/11/03 00:48:29;;;;;;;3.08;1.33;;;17.80;64.60;;;;;;5052383;28;20179;-69
2022/11/03 00:51:08;;;;;;;3.55;1.73;;;17.80;64.60;;;;;;5051548;28;20747;-69
2022/11/03 00:53:35;;;;;;;4.15;1.65;;;17.80;64.60;;;;;;5052421;28;20274;-69
2022/11/03 00:56:01;;;;;;;3.33;1.60;;;17.70;64.60;;;;;;5052134;28;20179;-69
2022/11/03 00:58:26;;;;;;;4.05;1.80;;;17.80;64.60;;;;;;5051799;28;20171;-69
2022/11/03 01:01:06;;;;;;;2.38;1.23;;;17.70;64.60;;;;;;5051078;28;20249;-69
2022/11/03 01:03:32;;;;;;;1.67;1.20;;;17.70;64.60;;;;;;5052406;28;20216;-68
2022/11/03 01:08:42;;;;;;;2.10;1.40;;;17.80;64.70;;;;;;5052269;28;20174;-69
2022/11/03 01:13:53;;;;;;;2.55;1.40;;;17.60;64.60;;;;;;5052360;28;20305;-70
2022/11/03 01:16:18;;;;;;;2.63;1.70;;;17.70;64.60;;;;;;5051997;28;20732;-69
2022/11/03 01:18:44;;;;;;;4.55;1.80;;;17.70;64.70;;;;;;5055030;28;20622;-69
2022/11/03 01:21:09;;;;;;;4.05;1.90;;;17.70;64.70;;;;;;5055434;28;20178;-69
2022/11/03 01:23:38;;;;;;;1.95;1.30;;;17.70;64.70;;;;;;5055897;28;20225;-69
2022/11/03 01:26:04;;;;;;;3.60;1.55;;;17.70;64.80;;;;;;5054777;28;20183;-69
2022/11/03 01:28:32;;;;;;;3.70;1.38;;;17.70;64.70;;;;;;5055760;28;20556;-69
2022/11/03 01:31:05;;;;;;;2.47;1.30;;;17.70;64.70;;;;;;5055281;28;20207;-70
2022/11/03 01:33:30;;;;;;;2.70;1.40;;;17.70;65.60;;;;;;5054980;28;20195;-69
2022/11/03 01:35:56;;;;;;;4.18;1.63;;;17.70;64.70;;;;;;5055823;28;20268;-70
2022/11/03 01:38:21;;;;;;;4.68;1.67;;;17.80;64.80;;;;;;5055719;28;20171;-68
2022/11/03 01:40:47;;;;;;;2.40;1.38;;;17.70;64.70;;;;;;5054879;28;20178;-69
2022/11/03 01:43:20;;;;;;;3.15;1.52;;;17.60;64.70;;;;;;5055334;28;20180;-69
2022/11/03 01:45:47;;;;;;;5.70;1.75;;;17.70;64.70;;;;;;5055056;28;20266;-69
2022/11/03 01:48:13;;;;;;;3.45;1.38;;;17.70;64.70;;;;;;5054004;28;20195;-69
2022/11/03 01:50:38;;;;;;;2.22;1.58;;;17.70;64.70;;;;;;5054265;28;20207;-69
2022/11/03 01:53:04;;;;;;;3.67;1.50;;;17.70;64.70;;;;;;5053126;28;20171;-69
2022/11/03 01:55:31;;;;;;;2.67;1.42;;;17.70;64.80;;;;;;5054061;28;20244;-70
2022/11/03 01:57:59;;;;;;;2.53;1.42;;;17.70;64.70;;;;;;5053681;28;20186;-69
2022/11/03 02:00:25;;;;;;;2.50;1.55;;;17.60;64.70;;;;;;5053330;28;20203;-69
2022/11/03 02:02:51;;;;;;;2.17;1.50;;;17.60;64.70;;;;;;5055031;28;20210;-69
2022/11/03 02:05:16;;;;;;;2.80;1.58;;;17.60;64.80;;;;;;5054729;28;20645;-68
2022/11/03 02:07:49;;;;;;;3.13;1.48;;;17.60;64.70;;;;;;5053156;28;20175;-68
2022/11/03 02:10:14;;;;;;;3.30;1.70;;;17.60;64.70;;;;;;5053460;28;20264;-69
2022/11/03 02:12:40;;;;;;;3.17;1.70;;;17.60;64.70;;;;;;5053680;28;20573;-69
2022/11/03 02:15:08;;;;;;;3.95;1.83;;;17.60;64.80;;;;;;5052401;28;20305;-69
2022/11/03 02:17:33;;;;;;;3.58;1.40;;;17.60;64.70;;;;;;5053593;28;20209;-69
2022/11/03 02:20:10;;;;;;;3.83;1.52;;;17.60;64.80;;;;;;5053452;28;20168;-68
2022/11/03 02:22:54;;;;;;;4.05;1.70;;;17.60;64.70;;;;;;5052908;28;20641;-70
2022/11/03 02:25:43;;;;;;;3.30;1.52;;;17.60;64.70;;;;;;5054433;28;20171;-70
2022/11/03 02:28:09;;;;;;;3.15;1.60;;;17.60;64.80;;;;;;5053456;28;20179;-69
2022/11/03 02:30:40;;;;;;;2.35;1.33;;;17.60;64.70;;;;;;5053447;28;20207;-69
2022/11/03 02:33:38;;;;;;;2.90;1.45;;;17.60;64.80;;;;;;5053248;28;20171;-68
2022/11/03 02:36:14;;;;;;;2.78;1.55;;;17.60;64.80;;;;;;5045929;28;20237;-68
2022/11/03 02:39:02;;;;;;;4.05;1.30;;;17.60;64.70;;;;;;5053334;28;20201;-69
2022/11/03 02:41:27;;;;;;;2.33;1.45;;;17.60;64.70;;;;;;5053400;28;20201;-69
2022/11/03 02:43:54;;;;;;;1.90;1.33;;;17.60;64.80;;;;;;5052045;28;20709;-69
2022/11/03 02:46:20;;;;;;;3.78;1.45;;;17.60;64.80;;;;;;5053914;28;20167;-69
2022/11/03 02:48:46;;;;;;;2.60;1.40;;;17.60;64.80;;;;;;5054258;28;20540;-69
2022/11/03 02:51:12;;;;;;;3.22;1.23;;;17.60;64.80;;;;;;5053333;28;20187;-69
2022/11/03 02:53:41;;;;;;;3.85;1.75;;;17.60;64.80;;;;;;5054242;28;20175;-69
2022/11/03 02:56:13;;;;;;;2.40;1.27;;;17.60;64.80;;;;;;5052187;28;20179;-69
2022/11/03 02:58:52;;;;;;;4.53;1.52;;;17.50;65.60;;;;;;5052881;28;20198;-69
2022/11/03 03:01:45;;;;;;;3.15;1.67;;;17.60;64.80;;;;;;5052817;28;20179;-68
2022/11/03 03:04:12;;;;;;;1.88;1.33;;;17.60;64.80;;;;;;5053055;28;20257;-68
2022/11/03 03:07:00;;;;;;;5.18;1.63;;;17.60;64.90;;;;;;5052608;28;20190;-68
2022/11/03 03:09:31;;;;;;;2.25;1.10;;;17.50;64.70;;;;;;5052793;28;20203;-69
2022/11/03 03:11:57;;;;;;;4.68;1.15;;;17.60;64.80;;;;;;5051598;28;20579;-69
2022/11/03 03:14:31;;;;;;;3.42;1.38;;;17.50;64.80;;;;;;5052503;28;20254;-68
2022/11/03 03:17:04;;;;;;;3.47;1.70;;;17.60;64.80;;;;;;5052246;28;20660;-69
2022/11/03 03:19:54;;;;;;;2.58;1.25;;;17.60;64.80;;;;;;5051879;28;20209;-69
2022/11/03 03:22:44;;;;;;;4.07;1.70;;;17.50;64.80;;;;;;5052453;28;20167;-69
2022/11/03 03:25:37;;;;;;;2.92;1.48;;;17.60;64.80;;;;;;5050919;28;20190;-69
2022/11/03 03:28:12;;;;;;;2.83;1.60;;;17.50;64.80;;;;;;5051968;28;20185;-69
2022/11/03 03:30:37;;;;;;;4.05;1.50;;;17.50;64.80;;;;;;5053592;28;20218;-69
2022/11/03 03:33:03;;;;;;;3.72;1.65;;;17.50;64.80;;;;;;5051400;28;20237;-69
2022/11/03 03:35:32;;;;;;;2.97;1.45;;;17.50;64.80;;;;;;5052211;28;20186;-69
2022/11/03 03:38:00;;;;;;;2.63;1.50;;;17.50;64.80;;;;;;5051919;28;20175;-69
2022/11/03 03:40:29;;;;;;;3.33;1.70;;;17.50;64.80;;;;;;5050604;28;20193;-69
2022/11/03 03:42:58;;;;;;;2.60;1.58;;;17.50;64.80;;;;;;5051966;28;20179;-69
2022/11/03 03:45:24;;;;;;;4.07;1.52;;;17.50;64.80;;;;;;5051420;28;20203;-69
2022/11/03 03:47:49;;;;;;;2.65;1.50;;;17.50;64.80;;;;;;5051955;28;20206;-69
2022/11/03 03:50:15;;;;;;;3.42;1.52;;;17.50;64.90;;;;;;5051583;28;20206;-69
2022/11/03 03:52:40;;;;;;;3.30;1.65;;;17.50;65.00;;;;;;5052331;28;20226;-69
2022/11/03 03:55:09;;;;;;;3.28;1.50;;;17.50;64.90;;;;;;5051448;28;20171;-68
2022/11/03 03:57:34;;;;;;;2.67;1.50;;;17.50;65.70;;;;;;5051975;28;20179;-69
2022/11/03 04:00:00;;;;;;;2.72;1.30;;;17.50;65.60;;;;;;5052025;28;20197;-69
2022/11/03 04:02:25;;;;;;;4.43;1.67;;;17.50;64.80;;;;;;5052995;28;20293;-69
2022/11/03 04:04:51;;;;;;;3.35;1.33;;;17.50;64.90;;;;;;5053020;28;20171;-69
2022/11/03 04:10:00;;;;;;;4.88;1.80;;;17.50;64.90;;;;;;5052499;28;20221;-69
2022/11/03 04:23:28;;;;;;;3.33;1.55;;;17.50;64.90;;;;;;5052856;28;20178;-70
2022/11/03 04:25:54;;;;;;;3.50;1.85;;;17.50;65.00;;;;;;5052843;28;20175;-70
2022/11/03 04:28:20;;;;;;;4.13;1.50;;;17.50;64.90;;;;;;5051613;28;20170;-68
2022/11/03 04:30:45;;;;;;;4.28;1.67;;;17.50;64.90;;;;;;5052739;28;20214;-68
2022/11/03 04:33:15;;;;;;;3.05;1.73;;;17.40;64.90;;;;;;5052354;28;20167;-68
2022/11/03 04:35:44;;;;;;;2.20;1.30;;;17.50;65.00;;;;;;5050836;28;20209;-68
2022/11/03 04:38:13;;;;;;;2.90;1.50;;;17.50;64.90;;;;;;5052226;28;20171;-69
2022/11/03 04:40:40;;;;;;;5.40;1.30;;;17.50;65.00;;;;;;5052511;28;20194;-69
2022/11/03 04:43:10;;;;;;;3.70;1.35;;;17.50;65.00;;;;;;5050255;28;20183;-69
2022/11/03 04:45:37;;;;;;;3.13;1.50;;;17.60;65.00;;;;;;5051436;28;20179;-69
2022/11/03 04:48:09;;;;;;;3.55;1.60;;;17.50;64.90;;;;;;5050998;28;20187;-69
2022/11/03 04:50:34;;;;;;;3.70;1.55;;;17.50;65.00;;;;;;5050937;28;20218;-68
2022/11/03 04:53:00;;;;;;;3.20;1.02;;;17.50;65.00;;;;;;5056497;28;20558;-68
2022/11/03 04:55:25;;;;;;;2.80;1.40;;;17.40;64.90;;;;;;5055091;28;20689;-69
2022/11/03 04:57:57;;;;;;;3.75;1.48;;;17.50;65.10;;;;;;5055782;28;20236;-68
2022/11/03 05:00:22;;;;;;;4.75;1.70;;;17.50;65.10;;;;;;5056463;28;20258;-69
2022/11/03 05:02:48;;;;;;;3.65;1.10;;;17.40;65.00;;;;;;5055589;28;20309;-68
2022/11/03 05:05:21;;;;;;;4.68;1.77;;;17.50;65.10;;;;;;5054778;28;20190;-68
2022/11/03 05:07:51;;;;;;;3.17;1.85;;;17.50;65.20;;;;;;5054991;28;20246;-68
2022/11/03 05:10:22;;;;;;;2.13;1.33;;;17.50;65.20;;;;;;5053975;28;20292;-68
2022/11/03 05:12:47;;;;;;;4.57;1.70;;;17.50;65.30;;;;;;5056201;28;20174;-68
2022/11/03 05:15:29;;;;;;;3.03;1.42;;;17.50;65.30;;;;;;5054386;28;20234;-68
2022/11/03 05:17:55;;;;;;;2.80;1.50;;;17.50;65.30;;;;;;5054047;28;20206;-68
2022/11/03 05:20:28;;;;;;;3.10;1.50;;;17.50;65.30;;;;;;5055618;28;20202;-68
2022/11/03 05:22:54;;;;;;;4.15;1.88;;;17.30;65.10;;;;;;5054816;28;20184;-68
2022/11/03 05:25:35;;;;;;;2.40;1.50;;;17.40;65.30;;;;;;5053914;28;20212;-69
2022/11/03 05:28:01;;;;;;;4.07;1.88;;;17.50;65.40;;;;;;5055315;28;20756;-68
2022/11/03 05:30:27;;;;;;;2.88;1.33;;;17.40;65.30;;;;;;5054505;28;20297;-68
2022/11/03 05:32:52;;;;;;;3.13;1.60;;;17.40;65.40;;;;;;5054885;28;20167;-68
2022/11/03 05:35:21;;;;;;;2.40;1.60;;;17.40;65.40;;;;;;5055163;28;20189;-68
2022/11/03 05:37:47;;;;;;;2.85;1.35;;;17.40;65.40;;;;;;5055730;28;20305;-68
2022/11/03 05:40:23;;;;;;;1.73;1.35;;;17.40;65.40;;;;;;5054658;28;20266;-68
2022/11/03 05:42:59;;;;;;;1.92;1.33;;;17.40;65.40;;;;;;5055696;28;20179;-68
2022/11/03 05:45:32;;;;;;;3.10;1.60;;;17.40;65.40;;;;;;5053493;28;20178;-68
2022/11/03 05:47:57;;;;;;;2.35;0.93;;;17.40;65.40;;;;;;5055322;28;20183;-68
2022/11/03 05:50:27;;;;;;;3.40;1.80;;;17.40;65.40;;;;;;5054137;28;20558;-68
2022/11/03 05:52:55;;;;;;;3.70;1.30;;;17.40;65.40;;;;;;5053548;28;20178;-68
2022/11/03 05:55:28;;;;;;;3.22;1.70;;;17.40;65.50;;;;;;5053752;28;20183;-68
2022/11/03 05:57:55;;;;;;;3.33;1.20;;;17.40;65.50;;;;;;5055188;28;20732;-69
2022/11/03 06:00:31;;;;;;;1.85;1.13;;;17.40;65.50;;;;;;5053177;28;20182;-68
2022/11/03 06:02:57;;;;;;;2.08;1.02;;;17.40;65.50;;;;;;5054453;28;20181;-68
2022/11/03 06:05:23;;;;;;;2.60;1.42;;;17.40;65.50;;;;;;5054077;28;20266;-68
2022/11/03 06:07:49;;;;;;;2.75;1.40;;;17.40;65.50;;;;;;5054434;28;20221;-68
2022/11/03 06:10:20;;;;;;;2.45;1.27;;;17.40;66.40;;;;;;5053419;28;20207;-68
2022/11/03 06:12:45;;;;;;;1.77;1.30;;;17.40;65.60;;;;;;5053745;28;20183;-68
2022/11/03 06:15:28;;;;;;;3.00;1.50;;;17.40;65.60;;;;;;5053820;28;20236;-68
2022/11/03 06:17:54;;;;;;;1.80;1.13;;;17.40;65.60;;;;;;5053863;28;20262;-68
2022/11/03 06:20:20;;;;;;;2.92;1.23;;;17.40;65.60;;;;;;5052654;28;20602;-68
2022/11/03 06:22:47;;;;;;;1.50;1.35;;;17.40;65.70;;;;;;5054762;28;20175;-69
2022/11/03 06:25:22;;;;;;;2.95;1.50;;;17.40;65.70;;;;;;5054238;28;20187;-69
2022/11/03 06:27:47;;;;;;;1.92;1.05;;;17.40;65.70;;;;;;5053024;28;20190;-68
2022/11/03 06:30:13;;;;;;;3.10;1.35;;;17.40;65.70;;;;;;5054176;28;20723;-68
2022/11/03 06:32:38;;;;;;;2.85;1.48;;;17.40;65.80;;;;;;5054724;28;20205;-68
2022/11/03 06:35:04;;;;;;;2.88;1.48;;;17.40;65.70;;;;;;5053479;28;20656;-68
2022/11/03 06:37:30;;;;;;;1.65;1.05;;;17.40;65.70;;;;;;5053234;28;20182;-68
2022/11/03 06:40:23;;;;;;;2.45;1.30;;;17.40;65.80;;;;;;5053180;28;20175;-68
2022/11/03 06:42:50;;;;;;;1.90;1.35;;;17.40;65.80;;;;;;5052401;28;20269;-68
2022/11/03 06:45:20;;;;;;;3.30;1.80;;;17.40;65.80;;;;;;5053095;28;20777;-68
2022/11/03 06:47:45;;;;;;;2.70;1.35;;;17.30;65.70;;;;;;5053181;28;20224;-68
2022/11/03 06:50:27;;;;;;;1.98;1.30;;;17.40;65.80;;;;;;5051901;28;20608;-68
2022/11/03 06:52:52;;;;;;;3.17;1.40;;;17.40;65.80;;;;;;5054123;28;20637;-69
2022/11/03 06:55:28;;;;;;;1.77;1.52;;;17.40;65.80;;;;;;5053237;28;20182;-68
2022/11/03 06:58:29;;;;;;;2.55;1.40;;;17.40;65.80;;;;;;5054125;28;20228;-69
2022/11/03 07:00:56;;;;;;;2.42;1.20;;;17.40;65.90;;;;;;5052586;28;20179;-69
2022/11/03 07:03:23;;;;;;;2.50;1.50;;;17.40;65.80;;;;;;5052441;28;20191;-67
2022/11/03 07:05:49;;;;;;;2.47;1.48;;;17.40;65.80;;;;;;5053838;28;20626;-68
2022/11/03 07:08:19;;;;;;;2.38;1.55;;;17.40;65.90;;;;;;5053562;28;20182;-68
2022/11/03 07:10:45;;;;;;;2.47;1.30;;;17.40;65.90;;;;;;5052966;28;20297;-68
2022/11/03 07:13:16;;;;;;;2.20;0.98;;;17.40;65.80;;;;;;5053266;28;20609;-69
2022/11/03 07:15:42;;;;;;;2.85;1.23;;;17.30;65.80;;;;;;5051379;28;20285;-68
2022/11/03 07:18:24;;;;;;;2.08;1.60;;;17.40;65.90;;;;;;5051716;28;20171;-68
2022/11/03 07:20:51;;;;;;;3.28;1.23;;;17.40;65.90;;;;;;5052421;28;20171;-68
2022/11/03 07:23:20;;;;;;;1.20;1.00;;;17.30;65.90;;;;;;5052991;28;20270;-69
2022/11/03 07:25:58;;;;;;;2.22;1.35;;;17.30;65.90;;;;;;5051894;28;20218;-70
2022/11/03 07:28:34;;;;;;;1.70;1.05;;;17.40;65.90;;;;;;5052221;28;20183;-69
2022/11/03 07:31:01;;;;;;;1.75;1.33;;;17.40;65.90;;;;;;5036065;28;20211;-69
2022/11/03 07:33:27;;;;;;;4.10;1.70;;;17.40;65.90;;;;;;5052296;28;20178;-68
2022/11/03 07:35:53;;;;;;;1.83;1.20;;;17.40;65.90;;;;;;5051965;28;20224;-68
2022/11/03 07:38:20;;;;;;;1.60;1.27;;;17.30;65.80;;;;;;5051262;28;20224;-68
2022/11/03 07:40:46;;;;;;;3.05;1.35;;;17.40;65.80;;;;;;5053134;28;20554;-69
2022/11/03 07:43:37;;;;;;;2.35;1.00;;;17.40;65.70;;;;;;5051804;28;20167;-69
2022/11/03 07:46:03;;;;;;;1.23;0.90;;;17.50;65.80;;;;;;5050997;28;20266;-70
2022/11/03 07:48:33;;;;;;;2.17;0.90;;;17.40;65.70;;;;;;5053065;28;20325;-70
2022/11/03 07:51:00;;;;;;;1.95;1.30;;;17.40;65.70;;;;;;5051651;28;20567;-69
2022/11/03 07:53:36;;;;;;;2.33;1.40;;;17.50;65.70;;;;;;5052283;28;20540;-71
2022/11/03 07:56:01;;;;;;;1.52;1.00;;;17.40;65.70;;;;;;5035130;28;20178;-71
2022/11/03 07:58:35;;;;;;;2.85;1.40;;;17.50;65.60;;;;;;5052905;28;20531;-70
2022/11/03 08:01:01;;;;;;;2.33;1.33;;;17.50;65.60;;;;;;5052561;28;20185;-70
2022/11/03 08:03:42;;;;;;;4.80;1.75;;;17.50;65.60;;;;;;5051735;28;20544;-70
2022/11/03 08:06:08;;;;;;;3.95;1.90;;;17.60;65.70;;;;;;5052015;28;20179;-69
2022/11/03 08:08:33;;;;;;;3.95;1.55;;;17.50;65.90;;;;;;5052970;28;20179;-71
2022/11/03 08:10:59;;;;;;;3.95;1.20;;;17.60;66.00;;;;;;5052507;28;20226;-68
2022/11/03 08:13:24;;;;;;;6.72;2.03;;;17.50;66.10;;;;;;5052160;28;20163;-70
2022/11/03 08:15:50;;;;;;;4.40;1.63;;;17.50;66.00;;;;;;5052758;28;20230;-70
2022/11/03 08:18:15;;;;;;;5.53;1.67;;;17.60;66.00;;;;;;5052578;28;20171;-70
2022/11/03 08:20:41;;;;;;;3.90;2.03;;;17.50;66.10;;;;;;5052016;28;20175;-70
2022/11/03 08:23:06;;;;;;;4.15;1.85;;;17.60;66.20;;;;;;5052436;28;20622;-71
2022/11/03 08:25:32;;;;;;;3.10;1.60;;;17.60;66.20;;;;;;5052749;28;20224;-71
2022/11/03 08:27:59;;;;;;;3.20;1.30;;;17.50;66.20;;;;;;5055721;28;20179;-68
2022/11/03 08:30:24;;;;;;;3.05;1.50;;;17.50;66.30;;;;;;5056998;28;20210;-68
2022/11/03 08:32:50;;;;;;;2.80;1.50;;;17.50;67.10;;;;;;5057010;28;20249;-67
2022/11/03 08:35:16;;;;;;;5.15;1.45;;;17.60;66.50;;;;;;5055862;28;21146;-67
2022/11/03 08:37:41;;;;;;;5.47;1.60;;;17.50;66.50;;;;;;5056603;28;20634;-68
2022/11/03 08:40:09;;;;;;;4.57;1.92;;;17.50;66.50;;;;;;5056289;28;20183;-68
2022/11/03 08:42:35;;;;;;;3.00;1.50;;;17.50;67.40;;;;;;5055851;28;20167;-69
2022/11/03 08:45:07;;;;;;;4.10;1.60;;;17.50;66.60;;;;;;5056411;28;20653;-69
2022/11/03 08:47:32;;;;;;;5.82;1.75;;;17.50;66.60;;;;;;5056699;28;20229;-69
2022/11/03 08:49:59;;;;;;;3.10;2.08;;;17.40;66.60;;;;;;5055468;28;20203;-69
2022/11/03 08:52:25;;;;;;;4.00;1.60;;;17.50;66.70;;;;;;5056380;28;20182;-68
2022/11/03 08:54:50;;;;;;;4.88;1.73;;;17.50;66.60;;;;;;5055599;28;20183;-69
2022/11/03 08:57:16;;;;;;;5.07;1.92;;;17.40;66.60;;;;;;5056043;28;20175;-69
2022/11/03 08:59:41;;;;;;;4.43;1.60;;;17.50;66.80;;;;;;5056611;28;20217;-69
2022/11/03 09:02:07;;;;;;;4.93;1.88;;;17.40;66.60;;;;;;5055425;28;20175;-69
2022/11/03 09:04:32;;;;;;;4.40;1.75;;;17.50;66.70;;;;;;5056400;28;20176;-68
2022/11/03 09:06:58;;;;;;;2.95;1.67;;;17.50;66.70;;;;;;5056141;28;20175;-68
2022/11/03 09:09:23;;;;;;;3.75;1.63;;;17.50;66.70;;;;;;5055372;28;20206;-69
2022/11/03 09:11:49;;;;;;;3.63;1.70;;;17.50;66.60;;;;;;5055982;28;20175;-69
2022/11/03 09:14:16;;;;;;;3.42;1.80;;;17.50;66.60;;;;;;5055750;28;20566;-69
2022/11/03 09:16:41;;;;;;;3.67;1.77;;;17.50;66.60;;;;;;5055191;28;20332;-68
2022/11/03 09:19:07;;;;;;;5.60;2.05;;;17.50;66.60;;;;;;5055702;28;20660;-69
2022/11/03 09:21:32;;;;;;;4.32;1.60;;;17.50;66.50;;;;;;5056115;28;20179;-69
2022/11/03 09:23:58;;;;;;;4.03;1.65;;;17.50;67.30;;;;;;5054960;28;20171;-69
2022/11/03 09:26:27;;;;;;;3.85;1.48;;;17.50;66.40;;;;;;5055732;28;20203;-69
2022/11/03 09:28:53;;;;;;;3.25;1.55;;;17.50;66.50;;;;;;5056006;28;20179;-68
2022/11/03 09:31:19;;;;;;;1.70;1.27;;;17.50;66.40;;;;;;5054771;28;20270;-68
2022/11/03 09:33:44;;;;;;;3.08;1.70;;;17.50;66.40;;;;;;5055605;28;20634;-68
2022/11/03 09:36:10;;;;;;;4.25;1.80;;;17.50;66.40;;;;;;5055166;28;20257;-68
2022/11/03 09:38:35;;;;;;;2.95;1.75;;;17.50;66.40;;;;;;5053757;28;20171;-68
2022/11/03 09:41:02;;;;;;;3.13;1.83;;;17.50;66.40;;;;;;5055068;28;20179;-68
2022/11/03 09:43:27;;;;;;;4.07;1.88;;;17.50;66.40;;;;;;5054131;28;20548;-69
2022/11/03 09:45:53;;;;;;;4.30;1.70;;;17.60;66.40;;;;;;5054627;28;20179;-69
2022/11/03 09:48:18;;;;;;;4.00;2.25;;;17.60;66.40;;;;;;5055189;28;20179;-69
2022/11/03 09:50:46;;;;;;;3.10;1.60;;;17.60;66.40;;;;;;5054133;28;20689;-69
2022/11/03 09:53:11;;;;;;;3.28;1.80;;;17.60;66.50;;;;;;5053469;28;20171;-69
2022/11/03 09:55:37;;;;;;;4.03;1.63;;;17.60;66.40;;;;;;5055055;28;20225;-69
2022/11/03 09:58:11;;;;;;;4.35;1.73;;;17.60;66.40;;;;;;5037247;28;20199;-69
2022/11/03 10:00:37;;;;;;;3.17;1.60;;;17.60;66.40;;;;;;5055315;28;20327;-68
2022/11/03 10:03:03;;;;;;;3.67;2.00;;;17.60;66.40;;;;;;5053719;28;20687;-68
2022/11/03 10:05:29;;;;;;;2.70;1.63;;;17.60;66.40;;;;;;5053301;28;21023;-67
2022/11/03 10:07:59;;;;;;;3.83;1.95;;;17.60;66.40;;;;;;5054930;28;20175;-68
2022/11/03 10:10:25;;;;;;;4.53;1.83;;;17.60;66.40;;;;;;5037152;28;20620;-68
2022/11/03 10:12:52;;;;;;;3.72;1.73;;;17.60;66.30;;;;;;5053115;28;20175;-68
2022/11/03 10:15:18;;;;;;;3.35;1.55;;;17.60;66.40;;;;;;5054550;28;20322;-69
2022/11/03 10:17:44;;;;;;;1.65;1.42;;;17.60;66.40;;;;;;5037167;28;20313;-68
2022/11/03 10:20:11;;;;;;;6.35;2.00;;;17.50;66.40;;;;;;5053705;28;20580;-68
2022/11/03 10:22:37;;;;;;;2.78;1.42;;;17.60;66.40;;;;;;5053436;28;20176;-69
2022/11/03 10:25:25;;;;;;;4.00;1.77;;;17.60;66.40;;;;;;5054583;28;20221;-68
2022/11/03 10:27:51;;;;;;;3.35;1.60;;;17.50;66.30;;;;;;5053931;28;20240;-69
2022/11/03 10:30:16;;;;;;;4.05;1.95;;;17.60;66.40;;;;;;5054145;28;20215;-68
2022/11/03 10:32:42;;;;;;;3.00;1.33;;;17.60;66.50;;;;;;5054483;28;20262;-68
2022/11/03 10:35:32;;;;;;;2.10;1.40;;;17.60;66.50;;;;;;5053454;28;20258;-68
2022/11/03 10:38:29;;;;;;;2.50;1.33;;;17.60;66.40;;;;;;5054371;28;20182;-68
2022/11/03 10:40:55;;;;;;;4.07;1.90;;;17.60;66.40;;;;;;5052942;28;20179;-68
2022/11/03 10:43:20;;;;;;;4.93;1.73;;;17.60;66.40;;;;;;5054164;28;20171;-69
2022/11/03 10:45:48;;;;;;;2.53;1.70;;;17.60;66.40;;;;;;5054466;28;20179;-68
2022/11/03 10:48:13;;;;;;;3.47;1.38;;;17.60;66.50;;;;;;5053567;28;20544;-68
2022/11/03 10:50:40;;;;;;;3.95;1.60;;;17.50;66.40;;;;;;5053982;28;20210;-68
2022/11/03 10:53:08;;;;;;;4.90;1.58;;;17.50;66.30;;;;;;5053950;28;20201;-68
2022/11/03 10:55:34;;;;;;;3.42;1.80;;;17.50;66.40;;;;;;5036015;28;20179;-68
2022/11/03 10:57:59;;;;;;;2.65;1.52;;;17.50;66.40;;;;;;5053682;28;20254;-68
2022/11/03 11:00:25;;;;;;;2.47;1.67;;;17.60;66.40;;;;;;5036281;28;20625;-68
2022/11/03 11:02:55;;;;;;;3.45;1.52;;;17.50;66.40;;;;;;5053194;28;20183;-68
2022/11/03 11:05:22;;;;;;;2.90;1.17;;;17.50;66.40;;;;;;5052570;28;20638;-68
2022/11/03 11:07:50;;;;;;;4.05;2.08;;;17.50;67.20;;;;;;5052723;28;20630;-68
2022/11/03 11:10:17;;;;;;;3.20;1.30;;;17.50;66.40;;;;;;5051589;28;20213;-68
2022/11/03 11:13:05;;;;;;;3.78;1.45;;;17.50;66.30;;;;;;5052582;28;20213;-68
2022/11/03 11:15:42;;;;;;;3.97;1.58;;;17.50;66.40;;;;;;5053074;28;20234;-68
2022/11/03 11:18:08;;;;;;;3.17;1.52;;;17.50;66.40;;;;;;5053340;28;20199;-68
2022/11/03 11:20:38;;;;;;;2.83;1.75;;;17.50;66.40;;;;;;5053656;28;20183;-69
2022/11/03 11:23:25;;;;;;;1.67;1.33;;;17.50;66.30;;;;;;5052610;28;20271;-69
2022/11/03 11:26:23;;;;;;;3.30;1.38;;;17.50;66.30;;;;;;5053714;28;20175;-68
2022/11/03 11:29:19;;;;;;;3.63;1.63;;;17.60;66.40;;;;;;5051402;28;20179;-68
2022/11/03 11:31:44;;;;;;;1.67;1.20;;;17.60;66.30;;;;;;5052599;28;20190;-68
2022/11/03 11:34:17;;;;;;;2.95;1.63;;;17.50;66.30;;;;;;5052212;28;20665;-68
2022/11/03 11:36:43;;;;;;;3.00;1.65;;;17.60;66.20;;;;;;5052703;28;20171;-69
2022/11/03 11:39:39;;;;;;;2.38;1.40;;;17.60;65.90;;;;;;5053225;28;20202;-68
2022/11/03 11:42:18;;;;;;;3.38;1.63;;;17.50;66.20;;;;;;5052860;28;20175;-68
2022/11/03 11:44:52;;;;;;;2.33;1.50;;;17.60;66.20;;;;;;5051271;28;20541;-69
2022/11/03 11:47:45;;;;;;;2.15;1.50;;;17.60;66.20;;;;;;5052937;28;20297;-69
2022/11/03 11:50:15;;;;;;;2.78;1.92;;;17.60;66.20;;;;;;5052812;28;20206;-68
2022/11/03 11:52:41;;;;;;;1.75;1.15;;;17.60;66.30;;;;;;5052299;28;20601;-68
2022/11/03 11:55:38;;;;;;;2.95;1.48;;;17.60;66.30;;;;;;5053015;28;20524;-69
2022/11/03 11:58:17;;;;;;;2.75;1.50;;;17.60;66.20;;;;;;5052163;28;20171;-70
2022/11/03 12:00:54;;;;;;;2.30;1.60;;;17.60;66.10;;;;;;5036612;28;20171;-68
2022/11/03 12:03:25;;;;;;;3.42;1.75;;;17.70;66.00;;;;;;5052479;28;20182;-68
2022/11/03 12:05:50;;;;;;;3.88;1.75;;;17.70;66.10;;;;;;5051182;28;20180;-68
2022/11/03 12:08:17;;;;;;;3.22;1.70;;;17.70;66.10;;;;;;5052305;28;20171;-68
2022/11/03 12:10:51;;;;;;;2.13;1.55;;;17.70;66.10;;;;;;5052716;28;20268;-68
2022/11/03 12:13:43;;;;;;;2.00;1.25;;;17.70;66.10;;;;;;5051736;28;20210;-68
2022/11/03 12:16:10;;;;;;;2.83;1.30;;;17.70;66.10;;;;;;5052338;28;20247;-68
2022/11/03 12:18:38;;;;;;;2.10;1.58;;;17.70;66.10;;;;;;5050783;28;20562;-68
2022/11/03 12:21:30;;;;;;;2.83;1.50;;;17.60;65.90;;;;;;5051259;28;20275;-68
2022/11/03 12:23:56;;;;;;;2.22;1.58;;;17.60;66.00;;;;;;5052593;28;20175;-69
2022/11/03 12:26:27;;;;;;;3.72;1.30;;;17.60;66.00;;;;;;5052141;28;20171;-68
2022/11/03 12:28:53;;;;;;;3.22;1.63;;;17.60;65.90;;;;;;5052543;28;20171;-68
2022/11/03 12:31:19;;;;;;;3.25;1.38;;;17.70;66.00;;;;;;5051125;28;20264;-68
2022/11/03 12:33:44;;;;;;;3.38;1.75;;;17.70;66.00;;;;;;5055794;28;20660;-68
2022/11/03 12:36:10;;;;;;;3.15;1.55;;;17.70;66.00;;;;;;5069746;28;20182;-68
2022/11/03 12:38:35;;;;;;;2.03;1.30;;;17.70;65.90;;;;;;5052710;28;20509;-68
2022/11/03 12:41:20;;;;;;;3.50;1.80;;;17.70;65.80;;;;;;5051129;28;20521;-69
2022/11/03 12:43:48;;;;;;;2.70;1.20;;;17.70;65.80;;;;;;5052601;28;20178;-69
2022/11/03 12:46:15;;;;;;;2.50;1.40;;;17.70;65.90;;;;;;5052169;28;20278;-68
2022/11/03 12:48:42;;;;;;;2.88;1.50;;;17.70;65.70;;;;;;5051988;28;20182;-68
2022/11/03 12:51:13;;;;;;;3.00;1.40;;;17.80;66.00;;;;;;5052255;28;20223;-68
2022/11/03 12:53:39;;;;;;;2.38;1.40;;;17.70;65.80;;;;;;5052544;28;20175;-67
2022/11/03 12:56:05;;;;;;;2.50;1.27;;;17.70;65.90;;;;;;5053123;28;20175;-69
2022/11/03 12:58:30;;;;;;;2.05;1.33;;;17.80;65.90;;;;;;5052376;28;20190;-68
2022/11/03 13:00:56;;;;;;;2.33;1.52;;;17.80;66.80;;;;;;5052233;28;20309;-69
2022/11/03 13:03:22;;;;;;;5.97;2.50;;;17.70;66.10;;;;;;5051803;28;20774;-69
2022/11/03 13:05:47;;;;;;;17.42;5.88;;;17.80;66.30;;;;;;5052416;28;20175;-71
2022/11/03 13:08:13;;;;;;;6.40;2.60;;;17.80;66.50;;;;;;5051520;28;20514;-71
2022/11/03 13:10:39;;;;;;;3.75;2.05;;;17.80;66.30;;;;;;5052258;28;20577;-71
2022/11/03 13:13:05;;;;;;;5.40;2.47;;;17.80;66.20;;;;;;5054707;28;20179;-71
2022/11/03 13:15:30;;;;;;;4.13;2.10;;;17.80;66.20;;;;;;5055082;28;20230;-70
2022/11/03 13:17:56;;;;;;;6.85;2.35;;;17.80;66.20;;;;;;5056204;28;20179;-70
2022/11/03 13:20:21;;;;;;;6.05;2.63;;;17.80;66.20;;;;;;5056070;28;20185;-70